sensor_id;sensor_type;location;lat;lon;timestamp;pressure;altitude;pressure_sealevel;temperature;humidity
60258;BME280;46115;44.484;11.314;2023-04-24T00:03:36;99389.47;;;16.97;58.93
60258;BME280;46115;44.484;11.314;2023-04-24T00:07:40;99387.63;;;17.17;58.01
60258;BME280;46115;44.484;11.314;2023-04-24T00:11:42;99383.44;;;17.14;58.60
60258;BME280;46115;44.484;11.314;2023-04-24T00:15:46;99378.53;;;16.91;59.31
60258;BME280;46115;44.484;11.314;2023-04-24T00:19:49;99387.38;;;16.81;59.24
60258;BME280;46115;44.484;11.314;2023-04-24T00:23:52;99387.47;;;17.28;58.49
60258;BME280;46115;44.484;11.314;2023-04-24T00:27:55;99389.75;;;17.13;58.72
60258;BME280;46115;44.484;11.314;2023-04-24T00:31:59;99392.81;;;17.38;58.09
60258;BME280;46115;44.484;11.314;2023-04-24T00:36:01;99382.31;;;17.73;56.84
60258;BME280;46115;44.484;11.314;2023-04-24T00:40:05;99368.91;;;17.36;57.48
60258;BME280;46115;44.484;11.314;2023-04-24T00:44:08;99349.75;;;17.88;56.60
60258;BME280;46115;44.484;11.314;2023-04-24T00:48:13;99346.66;;;17.45;57.56
60258;BME280;46115;44.484;11.314;2023-04-24T00:52:15;99331.91;;;17.41;57.37
60258;BME280;46115;44.484;11.314;2023-04-24T00:56:19;99352.22;;;17.62;57.65
60258;BME280;46115;44.484;11.314;2023-04-24T01:00:22;99342.47;;;17.33;57.51
60258;BME280;46115;44.484;11.314;2023-04-24T01:04:26;99340.94;;;17.77;57.10
60258;BME280;46115;44.484;11.314;2023-04-24T01:08:29;99344.50;;;17.12;58.22
60258;BME280;46115;44.484;11.314;2023-04-24T01:12:32;99326.25;;;17.07;58.29
60258;BME280;46115;44.484;11.314;2023-04-24T01:16:34;99344.19;;;17.99;56.13
60258;BME280;46115;44.484;11.314;2023-04-24T01:20:41;99341.50;;;17.25;58.02
60258;BME280;46115;44.484;11.314;2023-04-24T01:24:46;99331.00;;;17.13;58.67
60258;BME280;46115;44.484;11.314;2023-04-24T01:28:49;99327.91;;;17.18;58.33
60258;BME280;46115;44.484;11.314;2023-04-24T01:32:52;99321.41;;;17.30;58.75
60258;BME280;46115;44.484;11.314;2023-04-24T01:36:55;99310.91;;;17.56;57.88
60258;BME280;46115;44.484;11.314;2023-04-24T01:40:59;99307.78;;;17.24;59.23
60258;BME280;46115;44.484;11.314;2023-04-24T01:45:03;99312.72;;;17.56;58.66
60258;BME280;46115;44.484;11.314;2023-04-24T01:49:06;99303.28;;;17.24;59.20
60258;BME280;46115;44.484;11.314;2023-04-24T01:53:08;99294.38;;;17.33;59.16
60258;BME280;46115;44.484;11.314;2023-04-24T01:57:13;99302.28;;;17.35;59.36
60258;BME280;46115;44.484;11.314;2023-04-24T02:01:18;99308.63;;;17.61;58.83
60258;BME280;46115;44.484;11.314;2023-04-24T02:05:22;99298.47;;;17.37;59.51
60258;BME280;46115;44.484;11.314;2023-04-24T02:09:25;99303.53;;;17.40;59.72
60258;BME280;46115;44.484;11.314;2023-04-24T02:13:29;99298.03;;;17.32;60.25
60258;BME280;46115;44.484;11.314;2023-04-24T02:17:31;99266.81;;;17.05;60.69
60258;BME280;46115;44.484;11.314;2023-04-24T02:21:34;99303.38;;;17.42;60.21
60258;BME280;46115;44.484;11.314;2023-04-24T02:25:36;99290.88;;;17.33;60.71
60258;BME280;46115;44.484;11.314;2023-04-24T02:29:40;99299.31;;;17.38;60.57
60258;BME280;46115;44.484;11.314;2023-04-24T02:33:43;99308.13;;;17.48;60.73
60258;BME280;46115;44.484;11.314;2023-04-24T02:37:45;99296.06;;;17.34;60.83
60258;BME280;46115;44.484;11.314;2023-04-24T02:41:48;99293.97;;;17.38;61.30
60258;BME280;46115;44.484;11.314;2023-04-24T02:45:52;99280.91;;;17.35;62.79
60258;BME280;46115;44.484;11.314;2023-04-24T02:49:55;99279.09;;;17.26;63.93
60258;BME280;46115;44.484;11.314;2023-04-24T02:53:57;99273.34;;;17.58;62.84
60258;BME280;46115;44.484;11.314;2023-04-24T02:58:00;99269.63;;;17.41;63.26
60258;BME280;46115;44.484;11.314;2023-04-24T03:02:04;99260.25;;;17.37;63.50
60258;BME280;46115;44.484;11.314;2023-04-24T03:06:06;99262.66;;;17.58;63.68
60258;BME280;46115;44.484;11.314;2023-04-24T03:10:09;99256.66;;;17.19;65.21
60258;BME280;46115;44.484;11.314;2023-04-24T03:14:12;99249.34;;;17.48;65.39
60258;BME280;46115;44.484;11.314;2023-04-24T03:18:16;99208.72;;;17.17;66.88
60258;BME280;46115;44.484;11.314;2023-04-24T03:22:19;99229.22;;;16.89;69.53
60258;BME280;46115;44.484;11.314;2023-04-24T03:26:21;99234.41;;;16.91;70.21
60258;BME280;46115;44.484;11.314;2023-04-24T03:30:42;99236.44;;;16.69;69.80
60258;BME280;46115;44.484;11.314;2023-04-24T03:34:48;99221.53;;;16.57;70.65
60258;BME280;46115;44.484;11.314;2023-04-24T03:38:51;99220.25;;;16.80;69.74
60258;BME280;46115;44.484;11.314;2023-04-24T03:43:03;99226.16;;;16.55;70.91
60258;BME280;46115;44.484;11.314;2023-04-24T03:47:05;99230.78;;;16.63;72.17
60258;BME280;46115;44.484;11.314;2023-04-24T03:51:10;99233.72;;;16.60;72.69
60258;BME280;46115;44.484;11.314;2023-04-24T03:55:16;99250.16;;;16.65;74.41
60258;BME280;46115;44.484;11.314;2023-04-24T03:59:22;99248.59;;;16.91;74.23
60258;BME280;46115;44.484;11.314;2023-04-24T04:03:39;99247.34;;;16.57;75.66
60258;BME280;46115;44.484;11.314;2023-04-24T04:07:43;99255.41;;;16.66;74.48
60258;BME280;46115;44.484;11.314;2023-04-24T04:11:46;99258.03;;;16.57;75.24
60258;BME280;46115;44.484;11.314;2023-04-24T04:15:49;99267.44;;;16.61;74.78
60258;BME280;46115;44.484;11.314;2023-04-24T04:19:51;99280.78;;;17.27;71.57
60258;BME280;46115;44.484;11.314;2023-04-24T04:23:55;99274.78;;;16.68;74.08
60258;BME280;46115;44.484;11.314;2023-04-24T04:28:04;99283.84;;;17.41;70.40
60258;BME280;46115;44.484;11.314;2023-04-24T04:32:07;99280.38;;;16.46;71.88
60258;BME280;46115;44.484;11.314;2023-04-24T04:36:09;99288.63;;;17.01;69.16
60258;BME280;46115;44.484;11.314;2023-04-24T04:40:19;99291.88;;;16.37;69.74
60258;BME280;46115;44.484;11.314;2023-04-24T04:44:26;99293.44;;;16.39;70.65
60258;BME280;46115;44.484;11.314;2023-04-24T04:48:29;99312.81;;;16.32;69.99
60258;BME280;46115;44.484;11.314;2023-04-24T04:52:35;99314.75;;;16.39;70.03
60258;BME280;46115;44.484;11.314;2023-04-24T04:56:53;99290.75;;;16.20;70.06
60258;BME280;46115;44.484;11.314;2023-04-24T05:00:56;99322.09;;;16.76;68.93
60258;BME280;46115;44.484;11.314;2023-04-24T05:05:07;99319.03;;;15.92;70.11
60258;BME280;46115;44.484;11.314;2023-04-24T05:09:10;99339.56;;;16.11;69.91
60258;BME280;46115;44.484;11.314;2023-04-24T05:13:25;99352.81;;;16.90;66.61
60258;BME280;46115;44.484;11.314;2023-04-24T05:17:29;99343.41;;;16.37;68.91
60258;BME280;46115;44.484;11.314;2023-04-24T05:21:33;99358.53;;;16.27;68.93
60258;BME280;46115;44.484;11.314;2023-04-24T05:25:35;99356.16;;;16.34;69.31
60258;BME280;46115;44.484;11.314;2023-04-24T05:29:45;99358.56;;;16.37;68.86
60258;BME280;46115;44.484;11.314;2023-04-24T05:33:48;99354.31;;;16.25;67.92
60258;BME280;46115;44.484;11.314;2023-04-24T05:37:51;99338.19;;;16.26;69.75
60258;BME280;46115;44.484;11.314;2023-04-24T05:41:53;99340.13;;;16.24;70.28
60258;BME280;46115;44.484;11.314;2023-04-24T05:45:57;99334.97;;;16.32;69.14
60258;BME280;46115;44.484;11.314;2023-04-24T05:49:59;99338.63;;;17.08;68.36
60258;BME280;46115;44.484;11.314;2023-04-24T05:54:02;99354.34;;;16.34;69.61
60258;BME280;46115;44.484;11.314;2023-04-24T05:58:05;99373.31;;;16.50;69.42
60258;BME280;46115;44.484;11.314;2023-04-24T06:02:11;99364.59;;;16.58;69.37
60258;BME280;46115;44.484;11.314;2023-04-24T06:06:13;99375.03;;;16.71;69.07
60258;BME280;46115;44.484;11.314;2023-04-24T06:10:16;99378.22;;;16.36;70.74
60258;BME280;46115;44.484;11.314;2023-04-24T06:14:20;99378.63;;;16.50;70.74
60258;BME280;46115;44.484;11.314;2023-04-24T06:18:43;99383.28;;;16.97;69.35
60258;BME280;46115;44.484;11.314;2023-04-24T06:22:48;99362.47;;;16.62;71.44
60258;BME280;46115;44.484;11.314;2023-04-24T06:26:50;99365.50;;;16.68;72.75
60258;BME280;46115;44.484;11.314;2023-04-24T06:30:53;99349.47;;;16.68;72.65
60258;BME280;46115;44.484;11.314;2023-04-24T06:34:56;99364.31;;;16.42;74.49
60258;BME280;46115;44.484;11.314;2023-04-24T06:38:59;99360.53;;;16.54;73.87
60258;BME280;46115;44.484;11.314;2023-04-24T06:43:01;99356.97;;;16.05;75.85
60258;BME280;46115;44.484;11.314;2023-04-24T06:47:04;99349.69;;;16.27;74.89
60258;BME280;46115;44.484;11.314;2023-04-24T06:51:08;99354.19;;;16.65;73.27
60258;BME280;46115;44.484;11.314;2023-04-24T06:55:10;99349.91;;;16.73;72.34
60258;BME280;46115;44.484;11.314;2023-04-24T06:59:13;99356.03;;;16.93;70.75
60258;BME280;46115;44.484;11.314;2023-04-24T07:03:15;99354.88;;;17.25;71.15
60258;BME280;46115;44.484;11.314;2023-04-24T07:07:19;99350.88;;;17.48;69.79
60258;BME280;46115;44.484;11.314;2023-04-24T07:11:21;99339.81;;;17.80;68.01
60258;BME280;46115;44.484;11.314;2023-04-24T07:15:24;99335.31;;;17.98;67.93
60258;BME280;46115;44.484;11.314;2023-04-24T07:19:26;99333.75;;;18.05;68.38
60258;BME280;46115;44.484;11.314;2023-04-24T07:23:30;99338.34;;;18.31;66.64
60258;BME280;46115;44.484;11.314;2023-04-24T07:27:32;99346.56;;;18.65;64.47
60258;BME280;46115;44.484;11.314;2023-04-24T07:31:36;99338.91;;;18.88;65.19
60258;BME280;46115;44.484;11.314;2023-04-24T07:35:38;99352.91;;;18.46;66.18
60258;BME280;46115;44.484;11.314;2023-04-24T07:39:42;99356.13;;;19.29;64.45
60258;BME280;46115;44.484;11.314;2023-04-24T07:43:44;99354.97;;;19.31;64.39
60258;BME280;46115;44.484;11.314;2023-04-24T07:47:46;99357.81;;;19.56;62.87
60258;BME280;46115;44.484;11.314;2023-04-24T07:51:49;99373.03;;;19.29;64.43
60258;BME280;46115;44.484;11.314;2023-04-24T07:55:53;99376.47;;;20.08;61.60
60258;BME280;46115;44.484;11.314;2023-04-24T07:59:56;99370.97;;;20.68;59.76
60258;BME280;46115;44.484;11.314;2023-04-24T08:03:58;99353.88;;;21.17;57.18
60258;BME280;46115;44.484;11.314;2023-04-24T08:08:00;99352.88;;;21.82;55.41
60258;BME280;46115;44.484;11.314;2023-04-24T08:12:04;99360.97;;;21.74;53.25
60258;BME280;46115;44.484;11.314;2023-04-24T08:16:07;99347.59;;;22.36;51.35
60258;BME280;46115;44.484;11.314;2023-04-24T08:20:10;99337.38;;;23.38;48.76
60258;BME280;46115;44.484;11.314;2023-04-24T08:24:14;99368.38;;;23.86;48.68
60258;BME280;46115;44.484;11.314;2023-04-24T08:28:18;99391.16;;;25.28;43.35
60258;BME280;46115;44.484;11.314;2023-04-24T08:32:21;99395.50;;;25.50;43.35
60258;BME280;46115;44.484;11.314;2023-04-24T08:36:23;99377.72;;;24.92;45.23
60258;BME280;46115;44.484;11.314;2023-04-24T08:40:28;99387.50;;;25.35;44.14
60258;BME280;46115;44.484;11.314;2023-04-24T08:44:33;99387.19;;;25.73;43.36
60258;BME280;46115;44.484;11.314;2023-04-24T08:48:35;99393.81;;;26.05;42.89
60258;BME280;46115;44.484;11.314;2023-04-24T08:52:38;99391.53;;;24.61;44.68
60258;BME280;46115;44.484;11.314;2023-04-24T08:56:43;99404.44;;;25.23;43.84
60258;BME280;46115;44.484;11.314;2023-04-24T09:00:47;99415.03;;;25.45;45.22
60258;BME280;46115;44.484;11.314;2023-04-24T09:04:50;99415.00;;;25.17;45.49
60258;BME280;46115;44.484;11.314;2023-04-24T09:08:53;99417.38;;;24.84;46.05
60258;BME280;46115;44.484;11.314;2023-04-24T09:12:58;99423.59;;;24.64;45.46
60258;BME280;46115;44.484;11.314;2023-04-24T09:17:04;99426.53;;;23.74;48.12
60258;BME280;46115;44.484;11.314;2023-04-24T09:21:08;99436.66;;;23.72;46.00
60258;BME280;46115;44.484;11.314;2023-04-24T09:25:11;99448.00;;;23.07;47.32
60258;BME280;46115;44.484;11.314;2023-04-24T09:29:14;99454.06;;;21.91;53.61
60258;BME280;46115;44.484;11.314;2023-04-24T09:33:19;99459.88;;;22.27;53.51
60258;BME280;46115;44.484;11.314;2023-04-24T09:37:28;99465.19;;;21.80;55.63
60258;BME280;46115;44.484;11.314;2023-04-24T09:41:32;99477.75;;;22.59;53.34
60258;BME280;46115;44.484;11.314;2023-04-24T09:45:36;99495.91;;;22.10;53.30
60258;BME280;46115;44.484;11.314;2023-04-24T09:49:40;99494.09;;;21.94;53.65
60258;BME280;46115;44.484;11.314;2023-04-24T09:53:45;99487.06;;;22.40;52.46
60258;BME280;46115;44.484;11.314;2023-04-24T09:57:52;99470.25;;;21.67;53.04
60258;BME280;46115;44.484;11.314;2023-04-24T10:01:55;99470.41;;;21.90;53.01
60258;BME280;46115;44.484;11.314;2023-04-24T10:06:01;99474.94;;;22.76;49.34
60258;BME280;46115;44.484;11.314;2023-04-24T10:10:04;99471.41;;;23.06;48.35
60258;BME280;46115;44.484;11.314;2023-04-24T10:14:09;99466.25;;;23.19;48.15
60258;BME280;46115;44.484;11.314;2023-04-24T10:18:13;99453.56;;;23.28;48.70
60258;BME280;46115;44.484;11.314;2023-04-24T10:22:17;99437.00;;;22.54;48.58
60258;BME280;46115;44.484;11.314;2023-04-24T10:26:20;99441.88;;;23.73;47.97
60258;BME280;46115;44.484;11.314;2023-04-24T10:30:23;99438.53;;;23.33;47.10
60258;BME280;46115;44.484;11.314;2023-04-24T10:34:26;99426.63;;;23.43;47.83
60258;BME280;46115;44.484;11.314;2023-04-24T10:38:31;99418.06;;;23.24;47.54
60258;BME280;46115;44.484;11.314;2023-04-24T10:42:34;99427.47;;;22.44;49.26
60258;BME280;46115;44.484;11.314;2023-04-24T10:46:37;99418.72;;;22.02;50.11
60258;BME280;46115;44.484;11.314;2023-04-24T10:50:44;99396.66;;;22.46;50.24
60258;BME280;46115;44.484;11.314;2023-04-24T10:54:48;99413.09;;;22.28;49.98
60258;BME280;46115;44.484;11.314;2023-04-24T10:58:53;99414.97;;;22.20;50.69
60258;BME280;46115;44.484;11.314;2023-04-24T11:02:55;99421.31;;;22.66;50.22
60258;BME280;46115;44.484;11.314;2023-04-24T11:06:58;99419.75;;;22.71;50.21
60258;BME280;46115;44.484;11.314;2023-04-24T11:11:09;99412.97;;;22.22;51.10
60258;BME280;46115;44.484;11.314;2023-04-24T11:15:11;99423.66;;;22.38;51.49
60258;BME280;46115;44.484;11.314;2023-04-24T11:19:22;99411.69;;;21.93;52.29
60258;BME280;46115;44.484;11.314;2023-04-24T11:23:25;99414.91;;;22.67;50.87
60258;BME280;46115;44.484;11.314;2023-04-24T11:27:31;99411.25;;;22.29;51.37
60258;BME280;46115;44.484;11.314;2023-04-24T11:31:35;99411.56;;;22.65;50.83
60258;BME280;46115;44.484;11.314;2023-04-24T11:35:40;99413.81;;;22.22;51.86
60258;BME280;46115;44.484;11.314;2023-04-24T11:39:42;99416.31;;;22.24;50.53
60258;BME280;46115;44.484;11.314;2023-04-24T11:43:47;99411.34;;;21.96;51.26
60258;BME280;46115;44.484;11.314;2023-04-24T11:47:50;99383.78;;;21.94;51.61
60258;BME280;46115;44.484;11.314;2023-04-24T11:51:55;99410.38;;;21.89;50.76
60258;BME280;46115;44.484;11.314;2023-04-24T11:56:02;99414.25;;;22.34;49.81
60258;BME280;46115;44.484;11.314;2023-04-24T12:00:07;99410.28;;;22.14;50.70
60258;BME280;46115;44.484;11.314;2023-04-24T12:04:14;99396.81;;;21.66;51.67
60258;BME280;46115;44.484;11.314;2023-04-24T12:08:27;99389.28;;;22.09;51.12
60258;BME280;46115;44.484;11.314;2023-04-24T12:12:30;99365.97;;;21.93;49.16
60258;BME280;46115;44.484;11.314;2023-04-24T12:16:34;99395.66;;;22.47;47.54
60258;BME280;46115;44.484;11.314;2023-04-24T12:20:36;99401.44;;;22.36;48.24
60258;BME280;46115;44.484;11.314;2023-04-24T12:24:57;99398.50;;;22.23;48.65
60258;BME280;46115;44.484;11.314;2023-04-24T12:29:01;99406.28;;;22.40;48.18
60258;BME280;46115;44.484;11.314;2023-04-24T12:33:06;99405.81;;;22.37;49.05
60258;BME280;46115;44.484;11.314;2023-04-24T12:37:10;99402.25;;;22.05;50.14
60258;BME280;46115;44.484;11.314;2023-04-24T12:41:13;99398.69;;;22.44;48.28
60258;BME280;46115;44.484;11.314;2023-04-24T12:45:17;99401.94;;;22.39;48.90
60258;BME280;46115;44.484;11.314;2023-04-24T12:49:21;99382.22;;;22.08;50.50
60258;BME280;46115;44.484;11.314;2023-04-24T12:53:24;99384.78;;;22.63;48.80
60258;BME280;46115;44.484;11.314;2023-04-24T12:57:29;99375.53;;;22.35;48.80
60258;BME280;46115;44.484;11.314;2023-04-24T13:01:32;99367.38;;;22.74;48.70
60258;BME280;46115;44.484;11.314;2023-04-24T13:05:35;99362.50;;;22.16;49.31
60258;BME280;46115;44.484;11.314;2023-04-24T13:09:38;99359.63;;;22.48;45.91
60258;BME280;46115;44.484;11.314;2023-04-24T13:13:40;99353.94;;;22.43;44.96
60258;BME280;46115;44.484;11.314;2023-04-24T13:17:43;99356.53;;;22.59;45.82
60258;BME280;46115;44.484;11.314;2023-04-24T13:21:46;99357.59;;;21.80;49.15
60258;BME280;46115;44.484;11.314;2023-04-24T13:25:49;99350.16;;;21.90;47.99
60258;BME280;46115;44.484;11.314;2023-04-24T13:29:51;99353.75;;;22.22;48.14
60258;BME280;46115;44.484;11.314;2023-04-24T13:33:54;99356.66;;;22.66;45.84
60258;BME280;46115;44.484;11.314;2023-04-24T13:37:58;99342.69;;;22.39;47.38
60258;BME280;46115;44.484;11.314;2023-04-24T13:42:02;99338.72;;;22.58;45.60
60258;BME280;46115;44.484;11.314;2023-04-24T13:46:05;99351.50;;;22.79;46.08
60258;BME280;46115;44.484;11.314;2023-04-24T13:50:08;99344.63;;;22.77;45.63
60258;BME280;46115;44.484;11.314;2023-04-24T13:54:12;99313.56;;;22.43;45.97
60258;BME280;46115;44.484;11.314;2023-04-24T13:58:14;99330.75;;;22.88;44.00
60258;BME280;46115;44.484;11.314;2023-04-24T14:02:17;99329.72;;;22.89;43.94
60258;BME280;46115;44.484;11.314;2023-04-24T14:06:20;99329.63;;;22.82;43.93
60258;BME280;46115;44.484;11.314;2023-04-24T14:10:23;99335.50;;;22.78;45.54
60258;BME280;46115;44.484;11.314;2023-04-24T14:14:26;99316.16;;;21.97;46.99
60258;BME280;46115;44.484;11.314;2023-04-24T14:18:30;99320.91;;;22.49;47.22
60258;BME280;46115;44.484;11.314;2023-04-24T14:22:33;99321.28;;;22.23;46.55
60258;BME280;46115;44.484;11.314;2023-04-24T14:26:36;99317.69;;;22.77;43.91
60258;BME280;46115;44.484;11.314;2023-04-24T14:30:39;99323.50;;;22.42;43.93
60258;BME280;46115;44.484;11.314;2023-04-24T14:34:41;99331.75;;;22.41;44.41
60258;BME280;46115;44.484;11.314;2023-04-24T14:38:44;99330.00;;;22.25;45.40
60258;BME280;46115;44.484;11.314;2023-04-24T14:42:47;99318.50;;;22.54;44.02
60258;BME280;46115;44.484;11.314;2023-04-24T14:46:50;99336.53;;;22.54;44.95
60258;BME280;46115;44.484;11.314;2023-04-24T14:50:53;99338.94;;;22.71;44.79
60258;BME280;46115;44.484;11.314;2023-04-24T14:54:55;99339.72;;;23.03;43.91
60258;BME280;46115;44.484;11.314;2023-04-24T14:58:59;99345.59;;;23.07;43.48
60258;BME280;46115;44.484;11.314;2023-04-24T15:03:01;99330.09;;;22.86;43.88
60258;BME280;46115;44.484;11.314;2023-04-24T15:07:04;99340.81;;;22.94;45.01
60258;BME280;46115;44.484;11.314;2023-04-24T15:11:06;99355.72;;;22.82;44.81
60258;BME280;46115;44.484;11.314;2023-04-24T15:15:10;99359.53;;;22.87;45.64
60258;BME280;46115;44.484;11.314;2023-04-24T15:19:13;99360.28;;;22.19;45.39
60258;BME280;46115;44.484;11.314;2023-04-24T15:23:15;99363.31;;;21.77;45.48
60258;BME280;46115;44.484;11.314;2023-04-24T15:27:17;99363.06;;;21.56;43.95
60258;BME280;46115;44.484;11.314;2023-04-24T15:31:21;99353.00;;;21.41;42.98
60258;BME280;46115;44.484;11.314;2023-04-24T15:35:24;99361.53;;;21.61;42.71
60258;BME280;46115;44.484;11.314;2023-04-24T15:39:26;99372.47;;;21.52;41.55
60258;BME280;46115;44.484;11.314;2023-04-24T15:43:28;99370.38;;;21.86;42.16
60258;BME280;46115;44.484;11.314;2023-04-24T15:47:33;99363.94;;;21.07;42.01
60258;BME280;46115;44.484;11.314;2023-04-24T15:51:36;99363.25;;;20.81;42.25
60258;BME280;46115;44.484;11.314;2023-04-24T15:55:38;99363.59;;;21.02;43.11
60258;BME280;46115;44.484;11.314;2023-04-24T15:59:40;99354.19;;;20.98;41.97
60258;BME280;46115;44.484;11.314;2023-04-24T16:03:44;99330.03;;;20.90;41.29
60258;BME280;46115;44.484;11.314;2023-04-24T16:07:46;99312.41;;;20.88;40.49
60258;BME280;46115;44.484;11.314;2023-04-24T16:11:49;99322.13;;;20.80;40.20
60258;BME280;46115;44.484;11.314;2023-04-24T16:15:51;99329.34;;;20.80;39.97
60258;BME280;46115;44.484;11.314;2023-04-24T16:19:55;99329.84;;;21.08;39.22
60258;BME280;46115;44.484;11.314;2023-04-24T16:23:57;99355.88;;;20.91;39.45
60258;BME280;46115;44.484;11.314;2023-04-24T16:28:00;99374.50;;;20.68;36.12
60258;BME280;46115;44.484;11.314;2023-04-24T16:32:02;99364.63;;;20.85;36.24
60258;BME280;46115;44.484;11.314;2023-04-24T16:36:06;99381.88;;;20.74;36.02
60258;BME280;46115;44.484;11.314;2023-04-24T16:40:09;99413.47;;;21.54;34.93
60258;BME280;46115;44.484;11.314;2023-04-24T16:44:12;99426.53;;;21.73;34.73
60258;BME280;46115;44.484;11.314;2023-04-24T16:48:14;99412.34;;;21.24;33.69
60258;BME280;46115;44.484;11.314;2023-04-24T16:52:18;99415.31;;;20.30;40.81
60258;BME280;46115;44.484;11.314;2023-04-24T16:56:20;99399.97;;;20.48;42.95
60258;BME280;46115;44.484;11.314;2023-04-24T17:00:23;99392.28;;;20.69;42.68
60258;BME280;46115;44.484;11.314;2023-04-24T17:04:25;99400.50;;;20.51;42.77
60258;BME280;46115;44.484;11.314;2023-04-24T17:08:29;99404.69;;;20.54;41.87
60258;BME280;46115;44.484;11.314;2023-04-24T17:12:32;99404.56;;;21.04;38.61
60258;BME280;46115;44.484;11.314;2023-04-24T17:16:35;99398.53;;;21.35;36.73
60258;BME280;46115;44.484;11.314;2023-04-24T17:20:38;99400.50;;;20.68;37.71
60258;BME280;46115;44.484;11.314;2023-04-24T17:24:41;99407.34;;;19.52;40.78
60258;BME280;46115;44.484;11.314;2023-04-24T17:28:44;99413.19;;;19.73;40.67
60258;BME280;46115;44.484;11.314;2023-04-24T17:32:46;99404.59;;;19.18;41.11
60258;BME280;46115;44.484;11.314;2023-04-24T17:36:49;99408.44;;;19.15;40.73
60258;BME280;46115;44.484;11.314;2023-04-24T17:40:52;99409.59;;;19.13;40.79
60258;BME280;46115;44.484;11.314;2023-04-24T17:44:55;99419.16;;;19.41;40.17
60258;BME280;46115;44.484;11.314;2023-04-24T17:48:57;99418.22;;;19.24;40.93
60258;BME280;46115;44.484;11.314;2023-04-24T17:52:59;99427.28;;;19.49;41.66
60258;BME280;46115;44.484;11.314;2023-04-24T17:57:03;99433.78;;;18.85;42.98
60258;BME280;46115;44.484;11.314;2023-04-24T18:01:05;99434.78;;;18.84;42.85
60258;BME280;46115;44.484;11.314;2023-04-24T18:05:08;99434.94;;;18.55;43.23
60258;BME280;46115;44.484;11.314;2023-04-24T18:09:10;99441.19;;;18.91;43.19
60258;BME280;46115;44.484;11.314;2023-04-24T18:13:16;99451.84;;;18.28;43.64
60258;BME280;46115;44.484;11.314;2023-04-24T18:17:19;99419.78;;;17.91;43.48
60258;BME280;46115;44.484;11.314;2023-04-24T18:21:21;99418.81;;;17.92;43.82
60258;BME280;46115;44.484;11.314;2023-04-24T18:25:25;99447.31;;;17.74;44.36
60258;BME280;46115;44.484;11.314;2023-04-24T18:29:29;99453.00;;;17.89;43.91
60258;BME280;46115;44.484;11.314;2023-04-24T18:33:31;99427.03;;;17.81;45.76
60258;BME280;46115;44.484;11.314;2023-04-24T18:37:33;99454.59;;;17.82;46.55
60258;BME280;46115;44.484;11.314;2023-04-24T18:41:36;99453.66;;;17.44;45.74
60258;BME280;46115;44.484;11.314;2023-04-24T18:45:39;99476.03;;;17.43;45.91
60258;BME280;46115;44.484;11.314;2023-04-24T18:49:42;99484.19;;;17.70;46.54
60258;BME280;46115;44.484;11.314;2023-04-24T18:53:44;99490.63;;;17.49;46.73
60258;BME280;46115;44.484;11.314;2023-04-24T22:06:08;99471.75;;;14.45;65.02
60258;BME280;46115;44.484;11.314;2023-04-24T22:10:13;99480.81;;;14.31;65.94
60258;BME280;46115;44.484;11.314;2023-04-24T22:14:15;99476.69;;;14.61;64.98
60258;BME280;46115;44.484;11.314;2023-04-24T22:18:36;99465.78;;;14.42;65.61
60258;BME280;46115;44.484;11.314;2023-04-24T22:22:40;99460.16;;;14.13;66.58
60258;BME280;46115;44.484;11.314;2023-04-24T22:26:42;99453.97;;;14.34;66.18
60258;BME280;46115;44.484;11.314;2023-04-24T22:30:45;99459.63;;;14.41;66.23
60258;BME280;46115;44.484;11.314;2023-04-24T22:34:47;99453.59;;;14.39;66.17
60258;BME280;46115;44.484;11.314;2023-04-24T22:38:51;99451.13;;;14.70;65.23
60258;BME280;46115;44.484;11.314;2023-04-24T22:42:53;99448.59;;;15.00;64.57
60258;BME280;46115;44.484;11.314;2023-04-24T22:46:56;99446.75;;;14.80;64.90
60258;BME280;46115;44.484;11.314;2023-04-24T22:50:58;99450.50;;;15.09;63.74
60258;BME280;46115;44.484;11.314;2023-04-24T22:55:02;99448.47;;;15.02;64.09
60258;BME280;46115;44.484;11.314;2023-04-24T22:59:04;99417.09;;;14.84;64.01
60258;BME280;46115;44.484;11.314;2023-04-24T23:03:07;99444.13;;;15.01;64.01
60258;BME280;46115;44.484;11.314;2023-04-24T23:07:09;99438.03;;;15.10;63.81
60258;BME280;46115;44.484;11.314;2023-04-24T23:11:13;99438.63;;;15.13;63.87
60258;BME280;46115;44.484;11.314;2023-04-24T23:15:15;99439.13;;;15.07;64.32
60258;BME280;46115;44.484;11.314;2023-04-24T23:19:17;99439.59;;;15.12;64.18
60258;BME280;46115;44.484;11.314;2023-04-24T23:23:20;99431.28;;;15.06;63.90
60258;BME280;46115;44.484;11.314;2023-04-24T23:27:23;99434.25;;;15.12;63.92
60258;BME280;46115;44.484;11.314;2023-04-24T23:31:25;99430.88;;;15.10;63.89
60258;BME280;46115;44.484;11.314;2023-04-24T23:35:28;99426.16;;;15.14;63.90
60258;BME280;46115;44.484;11.314;2023-04-24T23:39:30;99425.22;;;15.24;63.92
60258;BME280;46115;44.484;11.314;2023-04-24T23:43:34;99415.81;;;15.20;63.91
60258;BME280;46115;44.484;11.314;2023-04-24T23:47:36;99418.00;;;15.26;63.85
60258;BME280;46115;44.484;11.314;2023-04-24T23:51:38;99418.03;;;15.15;64.17
60258;BME280;46115;44.484;11.314;2023-04-24T23:55:40;99413.38;;;15.28;64.00
60258;BME280;46115;44.484;11.314;2023-04-24T23:59:44;99416.28;;;15.25;64.29
